Time;durP1;ratioP1;P1;durP2;ratioP2;P2;SDS_P1;SDS_P2;PMS_P1;PMS_P2;Temp;Humidity;BMP_temperature;BMP_pressure;BME280_temperature;BME280_humidity;BME280_pressure;Samples;Min_cycle;Max_cycle;Signal;HPM_P1;HPM_P2
2022/04/19 00:01:56;;;;;;;8.18;6.18;;;8.90;99.90;;;;;;5123093;27;20084;-74
2022/04/19 00:04:22;;;;;;;9.07;6.78;;;8.90;99.90;;;;;;5118172;27;20085;-73
2022/04/19 00:06:48;;;;;;;9.10;6.50;;;8.90;99.90;;;;;;5107645;27;20038;-71
2022/04/19 00:09:14;;;;;;;11.73;7.03;;;8.80;99.90;;;;;;5109944;27;20112;-72
2022/04/19 00:11:39;;;;;;;10.05;7.28;;;8.80;99.90;;;;;;5091078;27;20043;-72
2022/04/19 00:14:07;;;;;;;10.20;7.03;;;8.80;99.90;;;;;;5135161;27;20035;-73
2022/04/19 00:16:35;;;;;;;9.07;6.78;;;8.70;99.90;;;;;;5107969;27;20081;-73
2022/04/19 00:19:00;;;;;;;14.02;7.43;;;8.80;99.90;;;;;;5112651;27;20042;-71
2022/04/19 00:21:27;;;;;;;10.45;7.03;;;8.70;99.90;;;;;;5106864;27;20035;-71
2022/04/19 00:23:55;;;;;;;11.43;7.55;;;8.60;99.90;;;;;;5125053;27;20241;-72
2022/04/19 00:26:21;;;;;;;10.23;7.35;;;8.60;99.90;;;;;;5113030;27;20286;-73
2022/04/19 00:28:47;;;;;;;10.23;7.20;;;8.50;99.90;;;;;;5126155;27;20042;-71
2022/04/19 00:31:13;;;;;;;10.38;7.15;;;8.40;99.90;;;;;;5133899;27;20105;-71
2022/04/19 00:33:44;;;;;;;9.65;7.47;;;8.30;99.90;;;;;;5133564;27;20026;-72
2022/04/19 00:36:26;;;;;;;9.30;6.55;;;8.20;99.90;;;;;;5109124;27;20329;-72
2022/04/19 00:38:51;;;;;;;10.10;7.65;;;8.20;99.90;;;;;;5108646;27;20084;-72
2022/04/19 00:41:17;;;;;;;10.48;7.38;;;8.00;99.90;;;;;;5100459;27;20068;-72
2022/04/19 00:43:43;;;;;;;8.75;6.70;;;8.00;99.90;;;;;;5112764;27;20122;-73
2022/04/19 00:46:08;;;;;;;9.30;7.38;;;7.90;99.90;;;;;;5120053;27;20068;-72
2022/04/19 00:48:34;;;;;;;10.07;6.72;;;7.90;99.90;;;;;;5139941;27;20332;-72
2022/04/19 00:51:00;;;;;;;9.48;7.43;;;7.90;99.90;;;;;;5125926;27;20072;-72
2022/04/19 00:53:30;;;;;;;10.80;7.35;;;7.90;99.90;;;;;;5130551;27;20038;-72
2022/04/19 00:55:58;;;;;;;12.02;7.68;;;7.80;99.90;;;;;;5114704;27;20031;-72
2022/04/19 00:58:24;;;;;;;9.43;7.28;;;7.90;99.90;;;;;;5107320;27;20066;-72
2022/04/19 01:00:50;;;;;;;9.95;6.47;;;7.80;99.90;;;;;;5130453;27;20345;-72
2022/04/19 01:03:16;;;;;;;9.00;6.55;;;7.40;99.90;;;;;;5105871;27;20039;-72
2022/04/19 01:05:47;;;;;;;11.00;7.32;;;7.10;99.90;;;;;;5107623;27;20045;-72
2022/04/19 01:08:13;;;;;;;12.10;7.60;;;7.10;99.90;;;;;;5139421;27;20030;-72
2022/04/19 01:10:38;;;;;;;9.85;7.03;;;6.90;99.90;;;;;;5111840;27;20032;-72
2022/04/19 01:13:19;;;;;;;11.60;7.40;;;6.80;99.90;;;;;;5130475;27;20102;-72
2022/04/19 01:15:49;;;;;;;10.18;6.95;;;6.80;99.90;;;;;;5093201;27;20062;-73
2022/04/19 01:18:20;;;;;;;11.48;7.15;;;6.80;99.90;;;;;;5124537;27;20050;-73
2022/04/19 01:20:48;;;;;;;9.90;6.57;;;6.80;99.90;;;;;;5124177;27;20035;-73
2022/04/19 01:23:15;;;;;;;9.65;7.43;;;7.10;99.90;;;;;;5109745;27;20031;-73
2022/04/19 01:25:41;;;;;;;9.50;7.18;;;6.70;99.90;;;;;;5107025;27;20068;-72
2022/04/19 01:28:07;;;;;;;10.02;6.90;;;6.70;99.90;;;;;;5113393;27;20027;-72
2022/04/19 01:30:33;;;;;;;9.27;6.72;;;6.70;99.90;;;;;;5109165;27;20035;-72
2022/04/19 01:33:02;;;;;;;9.25;6.70;;;6.60;99.90;;;;;;5120171;27;20042;-72
2022/04/19 01:35:28;;;;;;;10.85;7.00;;;6.60;99.90;;;;;;5110649;27;20240;-72
2022/04/19 01:37:53;;;;;;;10.57;6.55;;;6.60;99.90;;;;;;5112369;27;20080;-72
2022/04/19 01:40:20;;;;;;;9.95;6.28;;;6.60;99.90;;;;;;5107234;27;20019;-72
2022/04/19 01:42:58;;;;;;;8.75;6.35;;;6.60;99.90;;;;;;5109073;27;20031;-72
2022/04/19 01:45:26;;;;;;;9.55;6.30;;;6.60;99.90;;;;;;5136873;27;20373;-72
2022/04/19 01:47:53;;;;;;;10.15;6.72;;;6.60;99.90;;;;;;5120026;27;20220;-71
2022/04/19 01:50:20;;;;;;;8.77;6.50;;;6.60;99.90;;;;;;5107721;27;20054;-72
2022/04/19 01:52:48;;;;;;;8.93;6.20;;;6.70;99.90;;;;;;5117234;27;20039;-72
2022/04/19 01:55:16;;;;;;;9.10;6.70;;;6.70;99.90;;;;;;5116150;27;20062;-72
2022/04/19 01:57:47;;;;;;;9.13;6.90;;;6.70;99.90;;;;;;5102245;27;20023;-72
2022/04/19 02:00:15;;;;;;;10.52;7.13;;;6.80;99.90;;;;;;5132683;27;20066;-72
2022/04/19 02:02:43;;;;;;;10.43;6.72;;;6.80;99.90;;;;;;5138665;27;20045;-72
2022/04/19 02:05:08;;;;;;;8.38;6.38;;;6.80;99.90;;;;;;5130767;27;20040;-72
2022/04/19 02:07:38;;;;;;;8.77;6.40;;;7.00;99.90;;;;;;5080040;28;20042;-73
2022/04/19 02:10:04;;;;;;;9.30;6.78;;;7.10;99.90;;;;;;5114298;27;20190;-72
2022/04/19 02:12:31;;;;;;;9.05;7.15;;;7.20;99.90;;;;;;5122557;27;20059;-72
2022/04/19 02:14:57;;;;;;;9.77;6.93;;;7.30;99.90;;;;;;5113568;27;20039;-72
2022/04/19 02:17:23;;;;;;;9.45;6.80;;;7.50;99.90;;;;;;5120614;27;20076;-72
2022/04/19 02:20:10;;;;;;;9.02;6.05;;;7.50;99.90;;;;;;5135508;27;20240;-72
2022/04/19 02:22:36;;;;;;;8.45;6.20;;;7.60;99.90;;;;;;5131776;27;20040;-72
2022/04/19 02:25:02;;;;;;;8.80;6.15;;;7.60;99.90;;;;;;5131261;27;20062;-72
2022/04/19 02:27:31;;;;;;;8.93;5.72;;;7.60;99.90;;;;;;5130455;27;20317;-72
2022/04/19 02:29:57;;;;;;;7.82;5.60;;;7.50;99.90;;;;;;5139132;27;20045;-72
2022/04/19 02:32:23;;;;;;;8.43;5.88;;;7.50;99.90;;;;;;5116480;28;20039;-72
2022/04/19 02:34:50;;;;;;;9.07;5.60;;;7.40;99.90;;;;;;5104566;28;20061;-72
2022/04/19 02:37:19;;;;;;;8.95;5.65;;;7.40;99.90;;;;;;5117951;28;20133;-72
2022/04/19 02:39:48;;;;;;;8.90;6.00;;;7.40;99.90;;;;;;5133685;27;20031;-72
2022/04/19 02:42:14;;;;;;;8.00;5.50;;;7.40;99.90;;;;;;5132158;27;20026;-72
2022/04/19 02:44:50;;;;;;;8.85;5.60;;;7.40;99.90;;;;;;5135397;27;20037;-72
2022/04/19 02:47:19;;;;;;;8.80;6.07;;;7.30;99.90;;;;;;5117913;28;20039;-72
2022/04/19 02:49:45;;;;;;;8.07;5.53;;;7.50;99.90;;;;;;5132987;28;20038;-71
2022/04/19 02:52:11;;;;;;;7.72;5.85;;;7.30;99.90;;;;;;5135558;28;20035;-71
2022/04/19 02:54:37;;;;;;;6.65;5.47;;;7.30;99.90;;;;;;5102435;28;20313;-71
2022/04/19 02:57:04;;;;;;;10.32;5.88;;;7.40;99.90;;;;;;5117790;28;20028;-71
2022/04/19 02:59:30;;;;;;;7.97;5.97;;;7.40;99.90;;;;;;5134502;28;20051;-71
2022/04/19 03:01:55;;;;;;;8.55;6.07;;;7.30;99.90;;;;;;5132503;28;20207;-71
2022/04/19 03:04:21;;;;;;;8.85;6.13;;;7.30;99.90;;;;;;5136573;28;20042;-71
2022/04/19 03:06:48;;;;;;;7.65;5.60;;;7.30;99.90;;;;;;5116491;28;20027;-72
2022/04/19 03:09:13;;;;;;;7.20;5.13;;;7.40;99.90;;;;;;5114994;28;20038;-72
2022/04/19 03:11:39;;;;;;;8.80;5.80;;;7.30;99.90;;;;;;5117279;28;20199;-72
2022/04/19 03:14:06;;;;;;;8.77;6.20;;;7.30;99.90;;;;;;5151809;27;20032;-71
2022/04/19 03:16:33;;;;;;;9.18;5.95;;;7.40;99.90;;;;;;5139462;28;20336;-72
2022/04/19 03:18:58;;;;;;;10.13;6.13;;;7.30;99.90;;;;;;5117866;28;20042;-72
2022/04/19 03:21:24;;;;;;;7.43;5.50;;;7.40;99.90;;;;;;5135304;28;20322;-72
2022/04/19 03:29:19;;;;;;;9.27;6.68;;;7.30;99.90;;;;;;5109256;28;20241;-72
2022/04/19 03:31:46;;;;;;;8.85;6.13;;;7.30;99.90;;;;;;5127326;28;20042;-72
2022/04/19 03:34:11;;;;;;;8.65;5.90;;;7.30;99.90;;;;;;5104526;28;20261;-72
2022/04/19 03:36:37;;;;;;;8.38;6.25;;;7.20;99.90;;;;;;5135492;28;20063;-72
2022/04/19 03:39:03;;;;;;;9.35;6.10;;;7.20;99.90;;;;;;5102606;28;20032;-72
2022/04/19 03:41:29;;;;;;;8.60;6.07;;;7.10;99.90;;;;;;5135457;28;20330;-72
2022/04/19 03:43:55;;;;;;;9.10;5.85;;;7.10;99.90;;;;;;5107028;28;20063;-72
2022/04/19 03:46:21;;;;;;;8.43;6.00;;;7.10;99.90;;;;;;5109162;28;20077;-71
2022/04/19 03:48:48;;;;;;;9.43;6.13;;;7.10;99.90;;;;;;5123143;28;20074;-71
2022/04/19 03:51:13;;;;;;;9.52;5.90;;;7.10;99.90;;;;;;5136381;27;20384;-72
2022/04/19 03:53:39;;;;;;;8.02;5.43;;;7.10;99.90;;;;;;5095213;27;20032;-72
2022/04/19 03:56:05;;;;;;;9.35;6.45;;;7.10;99.90;;;;;;5122567;28;20054;-71
2022/04/19 03:58:32;;;;;;;9.15;6.35;;;7.10;99.90;;;;;;5124518;27;20259;-71
2022/04/19 04:00:59;;;;;;;9.40;5.75;;;7.10;99.90;;;;;;5115328;27;20043;-71
2022/04/19 04:03:25;;;;;;;10.45;5.97;;;7.10;99.90;;;;;;5131206;27;20037;-71
2022/04/19 04:05:50;;;;;;;8.68;5.90;;;7.00;99.90;;;;;;5125907;27;20213;-71
2022/04/19 04:08:18;;;;;;;11.77;7.38;;;6.90;99.90;;;;;;5095734;27;20062;-71
2022/04/19 04:10:44;;;;;;;10.25;6.43;;;7.20;99.90;;;;;;5129967;27;20102;-71
2022/04/19 04:13:10;;;;;;;9.48;6.05;;;6.80;99.90;;;;;;5147349;27;20072;-71
2022/04/19 04:15:36;;;;;;;10.75;7.30;;;6.80;99.90;;;;;;5125365;27;20310;-71
2022/04/19 04:18:02;;;;;;;9.57;6.85;;;6.80;99.90;;;;;;5144630;27;20022;-71
2022/04/19 04:20:28;;;;;;;10.00;6.00;;;6.80;99.90;;;;;;5147310;27;20053;-72
2022/04/19 04:23:00;;;;;;;9.68;6.75;;;6.80;99.90;;;;;;5108005;27;20036;-71
2022/04/19 04:25:26;;;;;;;9.13;6.18;;;6.80;99.90;;;;;;5122197;27;20092;-71
2022/04/19 04:27:52;;;;;;;10.25;6.03;;;6.80;99.90;;;;;;5128210;27;20023;-72
2022/04/19 04:30:18;;;;;;;10.45;6.55;;;6.90;99.90;;;;;;5124223;27;20026;-71
2022/04/19 04:32:44;;;;;;;10.48;6.05;;;6.80;99.90;;;;;;5108601;27;21125;-71
2022/04/19 04:35:10;;;;;;;9.95;6.32;;;6.90;99.90;;;;;;5107511;27;20306;-72
2022/04/19 04:37:36;;;;;;;10.25;7.18;;;6.90;99.90;;;;;;5112444;27;20038;-71
2022/04/19 04:40:03;;;;;;;11.65;6.78;;;6.90;99.90;;;;;;5141165;27;20023;-72
2022/04/19 04:42:28;;;;;;;11.23;6.78;;;6.90;99.90;;;;;;5131726;27;20038;-71
2022/04/19 04:45:12;;;;;;;16.00;8.07;;;6.90;99.90;;;;;;5105089;27;20035;-72
2022/04/19 04:50:22;;;;;;;10.95;7.32;;;6.90;99.90;;;;;;5131420;27;20221;-72
2022/04/19 04:52:49;;;;;;;10.60;6.95;;;7.00;99.90;;;;;;5115970;27;20035;-72
2022/04/19 04:55:18;;;;;;;10.15;7.15;;;7.00;99.90;;;;;;5123541;27;20241;-72
2022/04/19 04:57:44;;;;;;;12.90;6.75;;;7.00;99.90;;;;;;5124513;27;20038;-72
2022/04/19 05:00:10;;;;;;;10.13;7.38;;;7.00;99.90;;;;;;5130968;27;20274;-72
2022/04/19 05:02:36;;;;;;;13.10;7.85;;;7.00;99.90;;;;;;5115483;27;20114;-72
2022/04/19 05:05:02;;;;;;;10.73;6.75;;;7.10;99.90;;;;;;5113948;27;20209;-71
2022/04/19 05:07:27;;;;;;;11.85;7.43;;;7.10;99.90;;;;;;5117731;27;20206;-71
2022/04/19 05:09:56;;;;;;;11.05;7.10;;;7.10;99.90;;;;;;5107779;27;20098;-72
2022/04/19 05:12:24;;;;;;;13.13;6.97;;;7.10;99.90;;;;;;5131567;27;20053;-72
2022/04/19 05:15:16;;;;;;;10.48;7.18;;;7.20;99.90;;;;;;5109643;27;20070;-72
2022/04/19 05:17:41;;;;;;;10.93;7.63;;;7.20;99.90;;;;;;5125351;27;20225;-72
2022/04/19 05:20:09;;;;;;;10.13;6.63;;;7.30;99.90;;;;;;5145522;27;20070;-72
2022/04/19 05:22:35;;;;;;;11.80;7.35;;;7.30;99.90;;;;;;5131665;27;20089;-72
2022/04/19 05:25:00;;;;;;;13.18;7.18;;;7.40;99.90;;;;;;5095184;27;20045;-72
2022/04/19 05:27:26;;;;;;;10.05;6.90;;;7.40;99.90;;;;;;5121821;27;20031;-72
2022/04/19 05:29:51;;;;;;;12.68;7.65;;;7.50;99.90;;;;;;5123273;27;20061;-72
2022/04/19 05:32:17;;;;;;;11.82;7.28;;;7.50;99.90;;;;;;5143357;27;20060;-72
2022/04/19 05:34:43;;;;;;;9.73;6.72;;;7.50;99.90;;;;;;5108759;27;20032;-72
2022/04/19 05:37:09;;;;;;;12.93;7.80;;;8.00;99.90;;;;;;5134902;27;20042;-71
2022/04/19 05:39:34;;;;;;;13.65;7.85;;;7.70;99.90;;;;;;5139381;27;20026;-71
2022/04/19 05:42:00;;;;;;;10.20;7.13;;;7.70;99.90;;;;;;5106924;27;20279;-71
2022/04/19 05:44:26;;;;;;;14.43;6.65;;;7.80;99.90;;;;;;5125550;27;20047;-71
2022/04/19 05:46:52;;;;;;;12.10;7.25;;;7.90;99.90;;;;;;5109762;27;20054;-71
2022/04/19 05:49:18;;;;;;;10.23;6.82;;;8.00;99.90;;;;;;5144960;27;20031;-72
2022/04/19 05:51:47;;;;;;;12.43;7.43;;;8.00;99.90;;;;;;5134445;27;20031;-71
2022/04/19 05:54:12;;;;;;;9.90;6.13;;;8.10;99.90;;;;;;5140573;27;20042;-71
2022/04/19 05:56:38;;;;;;;10.05;7.25;;;8.20;99.90;;;;;;5111457;27;20131;-71
2022/04/19 05:59:04;;;;;;;10.25;6.78;;;8.20;99.90;;;;;;5120995;27;20113;-71
2022/04/19 06:04:52;;;;;;;9.25;6.63;;;8.30;99.90;;;;;;5092105;27;20038;-71
2022/04/19 06:07:55;;;;;;;9.13;6.55;;;8.50;99.90;;;;;;5096067;28;20036;-71
2022/04/19 06:10:22;;;;;;;9.63;6.82;;;8.60;99.90;;;;;;5104936;27;20220;-72
2022/04/19 06:12:48;;;;;;;9.07;5.72;;;8.70;99.90;;;;;;5107394;27;20067;-72
2022/04/19 06:15:13;;;;;;;11.65;6.50;;;8.70;99.90;;;;;;5134711;27;20035;-72
2022/04/19 06:17:40;;;;;;;9.98;5.95;;;8.80;99.90;;;;;;5123096;27;20378;-72
2022/04/19 06:20:07;;;;;;;10.93;6.15;;;9.00;99.90;;;;;;5113689;27;20198;-72
2022/04/19 06:22:33;;;;;;;11.50;6.80;;;9.00;99.90;;;;;;5123921;27;20190;-72
2022/04/19 06:25:01;;;;;;;10.20;6.75;;;9.10;99.90;;;;;;5119861;27;20213;-67
2022/04/19 06:27:37;;;;;;;11.50;7.13;;;9.30;99.90;;;;;;5144696;27;20340;-71
2022/04/19 06:30:04;;;;;;;9.85;6.90;;;9.30;99.90;;;;;;5136106;27;20098;-73
2022/04/19 06:32:29;;;;;;;8.35;5.78;;;9.50;99.90;;;;;;5093558;27;20027;-72
2022/04/19 06:34:55;;;;;;;7.45;5.53;;;9.60;99.90;;;;;;5121349;28;20038;-72
2022/04/19 06:37:22;;;;;;;9.52;6.78;;;9.70;99.90;;;;;;5106848;27;20031;-72
2022/04/19 06:39:48;;;;;;;9.55;6.30;;;9.90;99.90;;;;;;5106299;27;20042;-71
2022/04/19 06:42:14;;;;;;;9.45;6.75;;;10.00;99.90;;;;;;5106154;27;20293;-71
2022/04/19 06:44:48;;;;;;;9.88;6.30;;;10.20;99.90;;;;;;5111262;27;20027;-72
2022/04/19 06:47:14;;;;;;;9.48;6.45;;;10.30;99.90;;;;;;5112477;27;20444;-71
2022/04/19 06:49:39;;;;;;;10.98;5.95;;;10.30;99.90;;;;;;5135545;28;20048;-71
2022/04/19 06:52:06;;;;;;;10.63;5.78;;;10.40;99.90;;;;;;5106395;28;20334;-71
2022/04/19 06:54:37;;;;;;;7.97;5.57;;;10.50;99.90;;;;;;5124063;27;20031;-71
2022/04/19 06:57:03;;;;;;;8.98;5.57;;;10.60;99.90;;;;;;5141462;27;20044;-71
2022/04/19 06:59:29;;;;;;;7.75;6.00;;;10.60;99.90;;;;;;5121866;28;20067;-71
2022/04/19 07:01:55;;;;;;;10.35;6.32;;;10.80;99.90;;;;;;5123488;28;20088;-71
2022/04/19 07:04:20;;;;;;;9.35;5.70;;;11.00;99.90;;;;;;5115010;27;20215;-71
2022/04/19 07:06:46;;;;;;;10.18;5.88;;;11.10;99.90;;;;;;5112189;28;20106;-71
2022/04/19 07:09:12;;;;;;;7.80;5.57;;;11.00;99.90;;;;;;5089218;28;20178;-71
2022/04/19 07:11:38;;;;;;;9.00;5.63;;;11.00;99.90;;;;;;5108926;27;20065;-70
2022/04/19 07:14:04;;;;;;;10.25;5.50;;;11.10;99.90;;;;;;5106078;28;20043;-71
2022/04/19 07:16:30;;;;;;;10.73;6.43;;;11.20;99.90;;;;;;5109313;27;20027;-70
2022/04/19 07:18:55;;;;;;;8.68;6.28;;;11.30;99.90;;;;;;5108289;28;20234;-70
2022/04/19 07:26:50;;;;;;;10.52;5.85;;;11.60;99.90;;;;;;5138031;27;20045;-70
2022/04/19 07:29:18;;;;;;;8.85;5.25;;;11.60;99.90;;;;;;5127760;27;20026;-72
2022/04/19 07:31:48;;;;;;;9.10;5.78;;;11.80;99.90;;;;;;5112720;27;20035;-71
2022/04/19 07:34:16;;;;;;;8.68;5.85;;;11.80;99.90;;;;;;5113403;27;20102;-71
2022/04/19 07:36:42;;;;;;;8.05;5.03;;;11.90;99.90;;;;;;5118705;27;20051;-71
2022/04/19 07:39:09;;;;;;;8.07;5.45;;;12.00;99.90;;;;;;5123724;27;20230;-71
2022/04/19 07:41:37;;;;;;;7.43;4.78;;;12.00;99.90;;;;;;5141185;27;20034;-71
2022/04/19 07:44:04;;;;;;;7.13;5.00;;;12.20;99.90;;;;;;5141653;27;20053;-72
2022/04/19 07:46:33;;;;;;;9.48;5.82;;;12.10;99.90;;;;;;5124538;27;20050;-72
2022/04/19 07:48:59;;;;;;;6.80;4.90;;;12.20;99.90;;;;;;5124716;27;20399;-71
2022/04/19 07:51:25;;;;;;;6.38;5.10;;;12.40;99.90;;;;;;5141053;27;20501;-71
2022/04/19 07:53:52;;;;;;;6.70;4.18;;;12.50;99.90;;;;;;5141388;27;20098;-71
2022/04/19 07:56:18;;;;;;;7.55;4.90;;;12.50;99.90;;;;;;5123847;27;20030;-72
2022/04/19 07:58:46;;;;;;;6.20;4.05;;;12.60;99.90;;;;;;5120467;27;20042;-71
2022/04/19 08:01:13;;;;;;;6.03;3.95;;;12.80;99.90;;;;;;5120586;27;20111;-72
2022/04/19 08:03:38;;;;;;;6.22;4.30;;;13.00;99.90;;;;;;5103914;27;20122;-72
2022/04/19 08:06:04;;;;;;;6.85;4.00;;;13.00;99.90;;;;;;5120230;27;20031;-72
2022/04/19 08:08:30;;;;;;;4.93;3.80;;;13.00;99.90;;;;;;5120578;27;20051;-72
2022/04/19 08:10:56;;;;;;;4.47;3.33;;;13.00;99.90;;;;;;5103739;27;20107;-72
2022/04/19 08:13:21;;;;;;;4.18;3.05;;;13.10;99.90;;;;;;5103204;27;20054;-73
2022/04/19 08:15:47;;;;;;;4.72;2.88;;;13.20;99.90;;;;;;5103767;27;20031;-72
2022/04/19 08:18:14;;;;;;;4.80;3.05;;;13.30;99.90;;;;;;5106023;27;20104;-73
2022/04/19 08:20:44;;;;;;;4.90;3.22;;;13.50;99.90;;;;;;5103688;27;20054;-72
2022/04/19 08:23:10;;;;;;;3.35;2.40;;;13.60;99.90;;;;;;5103611;27;20321;-72
2022/04/19 08:25:37;;;;;;;2.70;1.90;;;13.70;99.90;;;;;;5120632;27;20045;-72
2022/04/19 08:28:04;;;;;;;2.63;1.83;;;13.70;99.90;;;;;;5103675;27;20061;-72
2022/04/19 08:30:29;;;;;;;3.20;2.10;;;13.80;99.90;;;;;;5123173;27;20035;-72
2022/04/19 08:32:56;;;;;;;2.33;1.50;;;13.70;99.90;;;;;;5140684;27;20034;-72
2022/04/19 08:35:21;;;;;;;4.10;1.85;;;13.90;99.90;;;;;;5140363;27;20042;-73
2022/04/19 08:37:47;;;;;;;3.17;1.90;;;13.80;99.90;;;;;;5123755;27;20194;-73
2022/04/19 08:40:14;;;;;;;2.05;1.58;;;13.90;97.70;;;;;;5123609;27;20038;-72
2022/04/19 08:42:40;;;;;;;2.42;2.05;;;14.00;99.20;;;;;;5140856;27;20042;-73
2022/04/19 08:45:13;;;;;;;2.67;1.80;;;14.10;99.90;;;;;;5140396;27;20034;-72
2022/04/19 08:47:41;;;;;;;2.58;1.77;;;14.10;99.90;;;;;;5123118;27;20262;-72
2022/04/19 08:50:15;;;;;;;2.65;1.60;;;14.30;99.90;;;;;;5122943;27;20077;-72
2022/04/19 08:52:41;;;;;;;4.03;1.73;;;14.30;98.60;;;;;;5123377;27;20038;-72
2022/04/19 08:57:53;;;;;;;4.25;2.20;;;14.20;96.70;;;;;;5140259;27;20079;-71
2022/04/19 09:00:23;;;;;;;2.88;2.22;;;14.30;99.60;;;;;;5135863;27;20095;-72
2022/04/19 09:02:59;;;;;;;3.45;2.38;;;14.40;98.90;;;;;;5136043;27;20096;-71
2022/04/19 09:05:26;;;;;;;3.13;2.60;;;14.60;99.00;;;;;;5135967;27;20038;-72
2022/04/19 09:07:55;;;;;;;3.33;2.10;;;14.80;99.90;;;;;;5136573;27;20039;-72
2022/04/19 09:10:32;;;;;;;4.00;2.15;;;14.90;99.90;;;;;;5136143;27;20054;-72
2022/04/19 09:13:07;;;;;;;2.60;2.00;;;15.00;99.10;;;;;;5136951;27;20074;-72
2022/04/19 09:15:40;;;;;;;3.33;2.38;;;15.00;99.90;;;;;;5136687;27;20056;-71
2022/04/19 09:18:38;;;;;;;2.97;2.53;;;15.40;99.90;;;;;;5119204;27;20035;-72
2022/04/19 09:21:05;;;;;;;3.25;2.30;;;15.60;99.90;;;;;;5119553;27;20463;-72
2022/04/19 09:23:33;;;;;;;3.25;2.60;;;15.60;99.90;;;;;;5119232;27;20250;-72
2022/04/19 09:26:08;;;;;;;4.22;2.60;;;15.70;98.50;;;;;;5119771;27;20078;-71
2022/04/19 09:28:34;;;;;;;3.00;2.30;;;15.70;99.10;;;;;;5119430;27;20031;-71
2022/04/19 09:31:01;;;;;;;3.05;2.38;;;15.90;98.40;;;;;;5118880;27;20286;-71
2022/04/19 09:33:28;;;;;;;2.50;1.90;;;16.20;98.50;;;;;;5119128;27;20043;-71
2022/04/19 09:35:58;;;;;;;3.88;2.60;;;15.90;95.50;;;;;;5119101;27;20035;-71
2022/04/19 09:38:39;;;;;;;3.95;2.50;;;16.20;96.70;;;;;;5118244;27;20035;-71
2022/04/19 09:41:14;;;;;;;4.38;2.60;;;16.40;95.90;;;;;;5136175;27;20067;-71
2022/04/19 09:43:40;;;;;;;2.80;1.95;;;16.00;93.80;;;;;;5134737;27;20226;-70
2022/04/19 09:46:07;;;;;;;2.80;2.50;;;16.30;93.40;;;;;;5101910;27;20043;-71
2022/04/19 09:48:39;;;;;;;2.67;2.00;;;16.40;95.00;;;;;;5119109;27;20230;-71
2022/04/19 09:51:10;;;;;;;2.75;1.35;;;16.90;92.50;;;;;;5135827;27;20114;-72
2022/04/19 09:53:48;;;;;;;3.30;2.03;;;16.40;90.50;;;;;;5118870;27;20317;-70
2022/04/19 09:56:19;;;;;;;3.03;1.80;;;16.60;88.00;;;;;;5118362;27;20039;-71
2022/04/19 09:58:47;;;;;;;3.33;2.05;;;16.70;88.20;;;;;;5135831;27;20050;-71
2022/04/19 10:09:38;;;;;;;4.57;2.58;;;16.30;90.00;;;;;;5121446;27;20326;-71
2022/04/19 10:12:06;;;;;;;2.20;2.00;;;16.40;87.40;;;;;;5137357;27;20042;-72
2022/04/19 10:14:33;;;;;;;3.70;2.30;;;16.60;87.60;;;;;;5084806;27;20046;-71
2022/04/19 10:16:59;;;;;;;2.55;2.10;;;16.90;88.50;;;;;;5135851;27;20042;-72
2022/04/19 10:19:27;;;;;;;3.30;2.30;;;17.30;90.30;;;;;;5134753;27;20087;-71
2022/04/19 10:21:54;;;;;;;3.45;2.58;;;17.40;90.00;;;;;;5117994;27;20039;-71
2022/04/19 10:24:20;;;;;;;2.53;2.08;;;17.20;86.90;;;;;;5134862;27;20050;-72
2022/04/19 10:26:48;;;;;;;2.65;1.90;;;17.40;86.70;;;;;;5118309;27;20038;-72
2022/04/19 10:29:32;;;;;;;2.30;2.10;;;17.10;84.40;;;;;;5135393;27;20345;-72
2022/04/19 10:32:07;;;;;;;2.65;2.20;;;17.30;84.80;;;;;;5117838;27;20066;-72
2022/04/19 10:34:38;;;;;;;3.97;2.50;;;17.20;82.20;;;;;;5135048;27;20074;-72
2022/04/19 10:37:15;;;;;;;3.42;2.17;;;17.20;89.00;;;;;;5135494;27;20038;-72
2022/04/19 10:39:54;;;;;;;4.00;2.20;;;17.60;85.30;;;;;;5135130;27;20393;-71
2022/04/19 10:42:30;;;;;;;2.88;2.20;;;17.90;85.40;;;;;;5114957;27;20047;-71
2022/04/19 10:44:56;;;;;;;3.70;2.30;;;17.70;82.80;;;;;;5121226;28;20043;-71
2022/04/19 10:47:23;;;;;;;2.83;2.40;;;17.70;88.50;;;;;;5097135;28;20080;-71
2022/04/19 10:50:03;;;;;;;3.30;2.40;;;17.50;77.20;;;;;;5114746;28;20047;-72
2022/04/19 10:52:42;;;;;;;3.42;2.05;;;17.20;79.30;;;;;;5097339;28;20458;-72
2022/04/19 10:55:18;;;;;;;4.32;2.53;;;17.50;78.30;;;;;;5102657;28;20046;-72
2022/04/19 11:00:40;;;;;;;3.15;2.33;;;17.80;77.20;;;;;;5120747;28;20258;-72
2022/04/19 11:03:11;;;;;;;2.78;1.92;;;17.50;77.10;;;;;;5104435;28;20120;-72
2022/04/19 11:05:44;;;;;;;3.00;2.20;;;17.80;80.30;;;;;;5120850;28;20039;-73
2022/04/19 11:08:25;;;;;;;2.30;2.10;;;17.70;80.30;;;;;;5121205;28;20116;-73
2022/04/19 11:11:04;;;;;;;2.63;2.17;;;17.40;74.30;;;;;;5121167;28;20379;-73
2022/04/19 11:13:40;;;;;;;2.65;2.15;;;17.30;77.30;;;;;;5120692;28;20055;-72
2022/04/19 11:16:06;;;;;;;2.85;2.00;;;17.40;78.60;;;;;;5104017;28;20252;-73
2022/04/19 11:18:34;;;;;;;2.50;1.90;;;17.90;77.20;;;;;;5120461;28;20035;-73
2022/04/19 11:21:01;;;;;;;4.00;2.60;;;17.70;76.10;;;;;;5120743;28;20050;-72
2022/04/19 11:23:29;;;;;;;3.00;2.38;;;17.60;75.80;;;;;;5120754;28;20047;-71
2022/04/19 11:25:56;;;;;;;3.65;2.45;;;17.70;76.50;;;;;;5121218;28;20203;-71
2022/04/19 11:28:24;;;;;;;2.58;2.35;;;17.50;76.00;;;;;;5103382;28;20051;-72
2022/04/19 11:30:49;;;;;;;4.07;2.40;;;17.60;77.60;;;;;;5131684;27;20098;-72
2022/04/19 11:33:23;;;;;;;3.38;2.20;;;17.60;76.40;;;;;;5123698;27;20352;-72
2022/04/19 11:36:14;;;;;;;2.42;2.20;;;17.90;75.00;;;;;;5141597;27;20023;-72
2022/04/19 11:38:46;;;;;;;2.67;2.42;;;17.60;72.00;;;;;;5141574;27;20039;-72
2022/04/19 11:46:44;;;;;;;4.57;2.15;;;17.90;76.40;;;;;;5141123;27;19920;-71
2022/04/19 11:49:34;;;;;;;4.07;3.17;;;17.60;74.10;;;;;;5122202;27;20315;-72
2022/04/19 11:52:08;;;;;;;2.70;2.30;;;17.80;76.20;;;;;;5121465;27;20515;-72
2022/04/19 11:54:34;;;;;;;4.63;2.50;;;18.00;77.40;;;;;;5112112;28;20067;-72
2022/04/19 11:57:08;;;;;;;3.42;2.30;;;17.70;77.70;;;;;;5103815;28;20032;-72
2022/04/19 11:59:36;;;;;;;2.15;1.77;;;17.80;78.50;;;;;;5102541;28;20566;-72
2022/04/19 12:02:38;;;;;;;4.03;2.10;;;18.10;72.40;;;;;;5103703;28;20051;-72
2022/04/19 12:05:05;;;;;;;3.58;2.20;;;17.60;72.00;;;;;;5118968;28;20115;-71
2022/04/19 12:07:30;;;;;;;3.03;1.80;;;17.70;75.80;;;;;;5083022;28;20039;-72
2022/04/19 12:09:58;;;;;;;2.65;2.13;;;17.70;72.30;;;;;;5117166;28;20081;-72
2022/04/19 12:12:56;;;;;;;2.67;2.30;;;17.60;72.50;;;;;;5099617;28;20031;-72
2022/04/19 12:15:41;;;;;;;2.53;2.10;;;17.70;76.90;;;;;;5099675;28;20096;-72
2022/04/19 12:18:08;;;;;;;2.25;1.77;;;18.10;73.40;;;;;;5117261;28;20199;-72
2022/04/19 12:20:43;;;;;;;2.88;2.47;;;18.10;74.70;;;;;;5099636;28;20058;-72
2022/04/19 12:23:19;;;;;;;3.92;2.53;;;18.00;77.00;;;;;;5116779;28;20201;-72
2022/04/19 12:26:01;;;;;;;3.95;2.05;;;17.90;75.10;;;;;;5117089;28;20035;-73
2022/04/19 12:28:46;;;;;;;2.03;1.70;;;18.10;74.60;;;;;;5116731;28;20073;-72
2022/04/19 12:31:36;;;;;;;3.35;2.03;;;18.20;73.10;;;;;;5113850;27;20027;-72
2022/04/19 12:34:03;;;;;;;5.40;2.05;;;17.90;73.80;;;;;;5120125;27;20110;-72
2022/04/19 12:36:43;;;;;;;2.65;2.10;;;18.00;74.40;;;;;;5102017;27;20049;-71
2022/04/19 12:39:09;;;;;;;2.80;2.10;;;18.00;72.60;;;;;;5120592;27;20031;-71
2022/04/19 12:42:04;;;;;;;2.75;2.08;;;18.30;74.60;;;;;;5136560;27;20039;-72
2022/04/19 12:44:30;;;;;;;2.50;2.03;;;18.20;70.50;;;;;;5136606;27;20070;-73
2022/04/19 12:46:57;;;;;;;3.30;2.20;;;18.40;71.70;;;;;;5120007;27;20507;-73
2022/04/19 12:49:26;;;;;;;2.50;2.15;;;18.10;71.20;;;;;;5119304;27;20066;-71
2022/04/19 12:51:59;;;;;;;4.07;2.20;;;18.20;70.80;;;;;;5137289;27;20336;-72
2022/04/19 12:54:26;;;;;;;3.58;2.75;;;18.40;70.90;;;;;;5119457;27;20053;-72
2022/04/19 12:57:02;;;;;;;4.45;2.38;;;18.40;72.50;;;;;;5136937;27;20043;-72
2022/04/19 12:59:30;;;;;;;3.00;2.58;;;18.30;71.70;;;;;;5118878;27;20085;-72
2022/04/19 13:01:56;;;;;;;2.63;2.25;;;17.80;73.90;;;;;;5119930;27;20054;-72
2022/04/19 13:04:22;;;;;;;2.63;2.42;;;17.80;74.40;;;;;;5136535;27;20182;-72
2022/04/19 13:12:39;;;;;;;3.17;2.72;;;18.30;74.30;;;;;;5135985;27;20329;-72
2022/04/19 13:15:06;;;;;;;3.80;2.63;;;18.20;71.40;;;;;;5119732;27;20037;-72
2022/04/19 13:17:36;;;;;;;2.60;2.40;;;18.50;74.70;;;;;;5135202;27;20317;-72
2022/04/19 13:20:05;;;;;;;4.47;3.22;;;18.60;71.30;;;;;;5136829;27;20338;-72
2022/04/19 13:22:31;;;;;;;5.35;3.13;;;18.80;73.20;;;;;;5118857;27;20039;-72
2022/04/19 13:24:57;;;;;;;2.70;2.08;;;18.50;71.60;;;;;;5135986;27;20038;-72
2022/04/19 13:27:26;;;;;;;3.05;2.58;;;18.30;69.00;;;;;;5118338;27;20093;-70
2022/04/19 13:30:13;;;;;;;3.88;3.08;;;18.40;67.40;;;;;;5136283;27;20031;-71
2022/04/19 13:32:50;;;;;;;3.70;3.00;;;18.60;68.60;;;;;;5120701;27;20111;-71
2022/04/19 13:35:16;;;;;;;3.05;2.40;;;18.90;69.50;;;;;;5101479;27;20105;-71
2022/04/19 13:40:26;;;;;;;3.38;3.03;;;19.20;70.10;;;;;;5135477;27;20082;-72
2022/04/19 13:42:52;;;;;;;4.70;3.10;;;18.40;70.00;;;;;;5136044;27;20031;-72
2022/04/19 13:45:18;;;;;;;3.47;3.17;;;18.40;70.00;;;;;;5118612;27;20081;-73